createdAt,value
2022-07-28T00:00:12.000Z,1012.8383759999999
2022-07-28T00:00:41.000Z,1012.8383759999999
2022-07-28T00:01:12.000Z,1013.0415599999999
2022-07-28T00:01:47.000Z,1013.0415599999999
2022-07-28T00:02:17.000Z,1012.8383759999999
2022-07-28T00:02:45.000Z,1012.736784
2022-07-28T00:03:07.000Z,1012.736784
2022-07-28T00:03:37.000Z,1012.736784
2022-07-28T00:03:54.000Z,1012.8383759999999
2022-07-28T00:04:26.000Z,1012.8383759999999
2022-07-28T00:04:48.000Z,1012.939968
2022-07-28T00:05:12.000Z,1012.939968
2022-07-28T00:05:47.000Z,1012.939968
2022-07-28T00:06:17.000Z,1012.939968
2022-07-28T00:06:45.000Z,1012.736784
2022-07-28T00:07:07.000Z,1012.736784
2022-07-28T00:07:37.000Z,1012.736784
2022-07-28T00:08:12.000Z,1012.8383759999999
2022-07-28T00:08:42.000Z,1012.8383759999999
2022-07-28T00:09:12.000Z,1012.8383759999999
2022-07-28T00:09:47.000Z,1012.8383759999999
2022-07-28T00:10:17.000Z,1012.635192
2022-07-28T00:10:45.000Z,1012.939968
2022-07-28T00:11:08.000Z,1012.939968
2022-07-28T00:11:34.000Z,1012.939968
2022-07-28T00:12:01.000Z,1012.736784
2022-07-28T00:12:28.000Z,1012.736784
2022-07-28T00:12:49.000Z,1012.939968
2022-07-28T00:13:12.000Z,1012.939968
2022-07-28T00:13:47.000Z,1012.939968
2022-07-28T00:14:17.000Z,1012.939968
2022-07-28T00:14:45.000Z,1012.635192
2022-07-28T00:15:06.000Z,1012.635192
2022-07-28T00:15:36.000Z,1012.635192
2022-07-28T00:16:07.000Z,1012.8383759999999
2022-07-28T00:16:42.000Z,1012.8383759999999
2022-07-28T00:17:12.000Z,1012.939968
2022-07-28T00:17:47.000Z,1012.939968
2022-07-28T00:18:16.000Z,1012.8383759999999
2022-07-28T00:18:45.000Z,1012.8383759999999
2022-07-28T00:19:16.000Z,1012.8383759999999
2022-07-28T00:19:46.000Z,1012.939968
2022-07-28T00:20:12.000Z,1012.939968
2022-07-28T00:20:42.000Z,1012.939968
2022-07-28T00:21:11.000Z,1012.8383759999999
2022-07-28T00:21:47.000Z,1012.8383759999999
2022-07-28T00:22:16.000Z,1012.8383759999999
2022-07-28T00:22:45.000Z,1012.8383759999999
2022-07-28T00:23:06.000Z,1012.8383759999999
2022-07-28T00:23:37.000Z,1012.8383759999999
2022-07-28T00:24:12.000Z,1012.939968
2022-07-28T00:24:42.000Z,1012.939968
2022-07-28T00:25:12.000Z,1012.8383759999999
2022-07-28T00:25:47.000Z,1012.8383759999999
2022-07-28T00:26:26.000Z,1012.8383759999999
2022-07-28T00:26:56.000Z,1012.939968
2022-07-28T00:27:20.000Z,1012.939968
2022-07-28T00:27:45.000Z,1012.8383759999999
2022-07-28T00:28:13.000Z,1012.8383759999999
2022-07-28T00:28:42.000Z,1012.8383759999999
2022-07-28T00:29:12.000Z,1012.939968
2022-07-28T00:29:47.000Z,1012.939968
2022-07-28T00:30:17.000Z,1012.939968
2022-07-28T00:30:45.000Z,1012.8383759999999
2022-07-28T00:31:06.000Z,1012.8383759999999
2022-07-28T00:31:37.000Z,1012.8383759999999
2022-07-28T00:32:06.000Z,1012.939968
2022-07-28T00:32:27.000Z,1012.939968
2022-07-28T00:32:48.000Z,1012.736784
2022-07-28T00:33:11.000Z,1012.736784
2022-07-28T00:33:47.000Z,1012.736784
2022-07-28T00:34:17.000Z,1012.939968
2022-07-28T00:34:45.000Z,1012.635192
2022-07-28T00:35:07.000Z,1012.635192
2022-07-28T00:35:37.000Z,1012.635192
2022-07-28T00:36:12.000Z,1012.8383759999999
2022-07-28T00:36:41.000Z,1012.8383759999999
2022-07-28T00:37:12.000Z,1012.939968
2022-07-28T00:37:47.000Z,1012.939968
2022-07-28T00:38:17.000Z,1012.939968
2022-07-28T00:38:45.000Z,1012.5336
2022-07-28T00:39:07.000Z,1012.5336
2022-07-28T00:39:36.000Z,1012.5336
2022-07-28T00:40:21.000Z,1012.736784
2022-07-28T00:40:42.000Z,1012.736784
2022-07-28T00:41:11.000Z,1012.939968
2022-07-28T00:41:47.000Z,1012.939968
2022-07-28T00:42:17.000Z,1012.5336
2022-07-28T00:42:46.000Z,1012.736784
2022-07-28T00:43:02.000Z,1012.736784
2022-07-28T00:43:20.000Z,1012.736784
2022-07-28T00:43:45.000Z,1012.635192
2022-07-28T00:44:12.000Z,1012.635192
2022-07-28T00:44:42.000Z,1012.635192
2022-07-28T00:45:11.000Z,1012.736784
2022-07-28T00:45:47.000Z,1012.736784
2022-07-28T00:46:17.000Z,1012.736784
2022-07-28T00:46:45.000Z,1012.736784
2022-07-28T00:47:09.000Z,1012.736784
2022-07-28T00:47:36.000Z,1012.736784
2022-07-28T00:48:06.000Z,1012.736784
2022-07-28T00:48:27.000Z,1012.736784
2022-07-28T00:48:48.000Z,1012.635192
2022-07-28T00:49:12.000Z,1012.635192
2022-07-28T00:49:47.000Z,1012.635192
2022-07-28T00:50:17.000Z,1012.635192
2022-07-28T00:50:45.000Z,1012.635192
2022-07-28T00:51:07.000Z,1012.635192
2022-07-28T00:51:37.000Z,1012.635192
2022-07-28T00:52:12.000Z,1012.736784
2022-07-28T00:52:41.000Z,1012.736784
2022-07-28T00:53:12.000Z,1012.635192
2022-07-28T00:53:46.000Z,1012.635192
2022-07-28T00:54:26.000Z,1012.736784
2022-07-28T00:54:53.000Z,1012.5336
2022-07-28T00:55:20.000Z,1012.5336
2022-07-28T00:55:45.000Z,1012.5336
2022-07-28T00:56:06.000Z,1012.5336
2022-07-28T00:56:42.000Z,1012.5336
2022-07-28T00:57:12.000Z,1012.5336
2022-07-28T00:57:47.000Z,1012.5336
2022-07-28T00:58:17.000Z,1012.635192
2022-07-28T00:58:47.000Z,1012.736784
2022-07-28T00:59:20.000Z,1012.736784
2022-07-28T00:59:45.000Z,1012.635192
2022-07-28T01:00:06.000Z,1012.635192
2022-07-28T01:00:27.000Z,1012.635192
2022-07-28T01:00:48.000Z,1012.635192
2022-07-28T01:01:13.000Z,1012.635192
2022-07-28T01:01:47.000Z,1012.635192
2022-07-28T01:02:17.000Z,1012.5336
2022-07-28T01:02:46.000Z,1012.4320079999999
2022-07-28T01:03:02.000Z,1012.4320079999999
2022-07-28T01:03:20.000Z,1012.4320079999999
2022-07-28T01:03:45.000Z,1012.8383759999999
2022-07-28T01:04:07.000Z,1012.8383759999999
2022-07-28T01:04:42.000Z,1012.8383759999999
2022-07-28T01:05:12.000Z,1012.5336
2022-07-28T01:05:47.000Z,1012.5336
2022-07-28T01:06:16.000Z,1012.8383759999999
2022-07-28T01:06:47.000Z,1012.8383759999999
2022-07-28T01:07:18.000Z,1012.8383759999999
2022-07-28T01:07:36.000Z,1012.8383759999999
2022-07-28T01:08:06.000Z,1012.5336
2022-07-28T01:08:41.000Z,1012.5336
2022-07-28T01:09:12.000Z,1012.736784
2022-07-28T01:09:47.000Z,1012.736784
2022-07-28T01:10:16.000Z,1012.5336
2022-07-28T01:10:47.000Z,1012.635192
2022-07-28T01:11:20.000Z,1012.635192
2022-07-28T01:11:45.000Z,1012.5336
2022-07-28T01:12:06.000Z,1012.5336
2022-07-28T01:12:27.000Z,1012.5336
2022-07-28T01:12:48.000Z,1012.635192
2022-07-28T01:13:12.000Z,1012.635192
2022-07-28T01:13:47.000Z,1012.635192
2022-07-28T01:14:17.000Z,1012.635192
2022-07-28T01:14:47.000Z,1012.635192
2022-07-28T01:15:20.000Z,1012.635192
2022-07-28T01:15:45.000Z,1012.5336
2022-07-28T01:16:11.000Z,1012.5336
2022-07-28T01:16:51.000Z,1012.736784
2022-07-28T01:17:14.000Z,1012.736784
2022-07-28T01:17:42.000Z,1012.736784
2022-07-28T01:18:11.000Z,1012.635192
2022-07-28T01:18:36.000Z,1012.635192
2022-07-28T01:19:02.000Z,1012.736784
2022-07-28T01:19:30.000Z,1012.736784
2022-07-28T01:20:01.000Z,1012.736784
2022-07-28T01:20:28.000Z,1012.736784
2022-07-28T01:20:51.000Z,1012.5336
2022-07-28T01:21:14.000Z,1012.5336
2022-07-28T01:21:42.000Z,1012.5336
2022-07-28T01:22:17.000Z,1012.736784
2022-07-28T01:22:46.000Z,1012.5336
2022-07-28T01:23:20.000Z,1012.5336
2022-07-28T01:23:45.000Z,1012.5336
2022-07-28T01:24:06.000Z,1012.5336
2022-07-28T01:24:41.000Z,1012.5336
2022-07-28T01:25:11.000Z,1012.635192
2022-07-28T01:25:46.000Z,1012.635192
2022-07-28T01:26:16.000Z,1012.635192
2022-07-28T01:26:46.000Z,1012.4320079999999
2022-07-28T01:27:20.000Z,1012.4320079999999
2022-07-28T01:27:45.000Z,1012.635192
2022-07-28T01:28:08.000Z,1012.635192
2022-07-28T01:28:38.000Z,1012.635192
2022-07-28T01:29:03.000Z,1012.4320079999999
2022-07-28T01:29:28.000Z,1012.4320079999999
2022-07-28T01:29:56.000Z,1012.4320079999999
2022-07-28T01:30:19.000Z,1012.4320079999999
2022-07-28T01:30:46.000Z,1012.736784
2022-07-28T01:31:11.000Z,1012.736784
2022-07-28T01:31:37.000Z,1012.736784
2022-07-28T01:32:07.000Z,1012.4320079999999
2022-07-28T01:32:27.000Z,1012.4320079999999
2022-07-28T01:32:48.000Z,1012.4320079999999
2022-07-28T01:33:12.000Z,1012.4320079999999
2022-07-28T01:33:50.000Z,1012.4320079999999
2022-07-28T01:34:17.000Z,1012.736784
2022-07-28T01:34:46.000Z,1012.4320079999999
2022-07-28T01:35:02.000Z,1012.4320079999999
2022-07-28T01:35:20.000Z,1012.4320079999999
2022-07-28T01:35:45.000Z,1012.4320079999999
2022-07-28T01:36:07.000Z,1012.4320079999999
2022-07-28T01:36:27.000Z,1012.4320079999999
2022-07-28T01:36:48.000Z,1012.635192
2022-07-28T01:37:12.000Z,1012.635192
2022-07-28T01:37:46.000Z,1012.635192
2022-07-28T01:38:20.000Z,1012.4320079999999
2022-07-28T01:38:45.000Z,1012.330416
2022-07-28T01:39:02.000Z,1012.330416
2022-07-28T01:39:30.000Z,1012.330416
2022-07-28T01:40:01.000Z,1012.4320079999999
2022-07-28T01:40:28.000Z,1012.4320079999999
2022-07-28T01:40:51.000Z,1012.330416
2022-07-28T01:41:14.000Z,1012.330416
2022-07-28T01:41:42.000Z,1012.330416
2022-07-28T01:42:17.000Z,1012.635192
2022-07-28T01:42:47.000Z,1012.4320079999999
2022-07-28T01:43:20.000Z,1012.4320079999999
2022-07-28T01:43:45.000Z,1012.330416
2022-07-28T01:44:06.000Z,1012.330416
2022-07-28T01:44:42.000Z,1012.330416
2022-07-28T01:45:13.000Z,1012.4320079999999
2022-07-28T01:45:47.000Z,1012.4320079999999
2022-07-28T01:46:16.000Z,1012.4320079999999
2022-07-28T01:46:47.000Z,1012.4320079999999
2022-07-28T01:47:20.000Z,1012.4320079999999
2022-07-28T01:47:45.000Z,1012.5336
2022-07-28T01:48:07.000Z,1012.5336
2022-07-28T01:48:42.000Z,1012.5336
2022-07-28T01:49:12.000Z,1012.330416
2022-07-28T01:49:47.000Z,1012.330416
2022-07-28T01:50:17.000Z,1012.330416
2022-07-28T01:50:46.000Z,1012.4320079999999
2022-07-28T01:51:03.000Z,1012.4320079999999
2022-07-28T01:51:20.000Z,1012.4320079999999
2022-07-28T01:51:45.000Z,1012.330416
2022-07-28T01:52:06.000Z,1012.330416
2022-07-28T01:52:27.000Z,1012.330416
2022-07-28T01:52:48.000Z,1012.330416
2022-07-28T01:53:11.000Z,1012.330416
2022-07-28T01:53:47.000Z,1012.330416
2022-07-28T01:54:17.000Z,1012.2288239999999
2022-07-28T01:54:46.000Z,1012.5336
2022-07-28T01:55:11.000Z,1012.5336
2022-07-28T01:55:36.000Z,1012.5336
2022-07-28T01:56:11.000Z,1012.330416
2022-07-28T01:56:51.000Z,1012.330416
2022-07-28T01:57:14.000Z,1012.330416
2022-07-28T01:57:42.000Z,1012.330416
2022-07-28T01:58:11.000Z,1012.5336
2022-07-28T01:58:36.000Z,1012.5336
2022-07-28T01:59:02.000Z,1012.330416
2022-07-28T01:59:30.000Z,1012.330416
2022-07-28T02:00:07.000Z,1012.2288239999999
2022-07-28T02:00:42.000Z,1012.2288239999999
2022-07-28T02:01:12.000Z,1012.2288239999999
2022-07-28T02:01:47.000Z,1012.2288239999999
2022-07-28T02:02:17.000Z,1012.2288239999999
2022-07-28T02:02:47.000Z,1012.2288239999999
2022-07-28T02:03:02.000Z,1012.2288239999999
2022-07-28T02:03:20.000Z,1012.2288239999999
2022-07-28T02:03:45.000Z,1012.330416
2022-07-28T02:04:07.000Z,1012.330416
2022-07-28T02:04:27.000Z,1012.330416
2022-07-28T02:04:48.000Z,1012.330416
2022-07-28T02:05:12.000Z,1012.330416
2022-07-28T02:05:47.000Z,1012.330416
2022-07-28T02:06:16.000Z,1012.4320079999999
2022-07-28T02:06:56.000Z,1012.2288239999999
2022-07-28T02:07:21.000Z,1012.2288239999999
2022-07-28T02:07:46.000Z,1012.330416
2022-07-28T02:08:09.000Z,1012.330416
2022-07-28T02:08:38.000Z,1012.330416
2022-07-28T02:09:03.000Z,1012.2288239999999
2022-07-28T02:09:28.000Z,1012.2288239999999
2022-07-28T02:09:56.000Z,1012.4320079999999
2022-07-28T02:10:17.000Z,1012.4320079999999
2022-07-28T02:10:46.000Z,1012.2288239999999
2022-07-28T02:11:02.000Z,1012.2288239999999
2022-07-28T02:11:20.000Z,1012.2288239999999
2022-07-28T02:11:45.000Z,1012.330416
2022-07-28T02:12:07.000Z,1012.330416
2022-07-28T02:12:27.000Z,1012.330416
2022-07-28T02:12:48.000Z,1012.330416
2022-07-28T02:13:12.000Z,1012.330416
2022-07-28T02:13:47.000Z,1012.330416
2022-07-28T02:14:17.000Z,1012.2288239999999
2022-07-28T02:14:47.000Z,1012.2288239999999
2022-07-28T02:15:02.000Z,1012.2288239999999
2022-07-28T02:15:20.000Z,1012.2288239999999
2022-07-28T02:15:45.000Z,1012.4320079999999
2022-07-28T02:16:07.000Z,1012.4320079999999
2022-07-28T02:16:36.000Z,1012.4320079999999
2022-07-28T02:16:54.000Z,1012.127232
2022-07-28T02:17:12.000Z,1012.127232
2022-07-28T02:17:47.000Z,1012.127232
2022-07-28T02:18:16.000Z,1012.2288239999999
2022-07-28T02:18:47.000Z,1012.4320079999999
2022-07-28T02:19:02.000Z,1012.4320079999999
2022-07-28T02:19:20.000Z,1012.4320079999999
2022-07-28T02:19:45.000Z,1012.330416
2022-07-28T02:20:07.000Z,1012.330416
2022-07-28T02:20:27.000Z,1012.330416
2022-07-28T02:20:48.000Z,1012.2288239999999
2022-07-28T02:21:12.000Z,1012.2288239999999
2022-07-28T02:21:47.000Z,1012.2288239999999
2022-07-28T02:22:17.000Z,1012.330416
2022-07-28T02:22:47.000Z,1012.2288239999999
2022-07-28T02:23:03.000Z,1012.2288239999999
2022-07-28T02:23:36.000Z,1012.2288239999999
2022-07-28T02:24:07.000Z,1012.5336
2022-07-28T02:24:26.000Z,1012.5336
2022-07-28T02:24:49.000Z,1012.330416
2022-07-28T02:25:12.000Z,1012.330416
2022-07-28T02:25:47.000Z,1012.330416
2022-07-28T02:26:17.000Z,1012.127232
2022-07-28T02:26:47.000Z,1012.2288239999999
2022-07-28T02:27:02.000Z,1012.2288239999999
2022-07-28T02:27:20.000Z,1012.2288239999999
2022-07-28T02:27:45.000Z,1012.330416
2022-07-28T02:28:07.000Z,1012.330416
2022-07-28T02:28:27.000Z,1012.330416
2022-07-28T02:28:48.000Z,1012.330416
2022-07-28T02:29:12.000Z,1012.330416
2022-07-28T02:29:47.000Z,1012.330416
2022-07-28T02:30:16.000Z,1012.2288239999999
2022-07-28T02:30:56.000Z,1012.2288239999999
2022-07-28T02:31:21.000Z,1012.2288239999999
2022-07-28T02:31:46.000Z,1012.330416
2022-07-28T02:32:09.000Z,1012.330416
2022-07-28T02:32:51.000Z,1012.330416
2022-07-28T02:33:14.000Z,1012.330416
2022-07-28T02:33:47.000Z,1012.330416
2022-07-28T02:34:17.000Z,1012.2288239999999
2022-07-28T02:34:46.000Z,1012.0256400000001
2022-07-28T02:35:20.000Z,1012.0256400000001
2022-07-28T02:35:53.000Z,1012.330416
2022-07-28T02:36:27.000Z,1012.330416
2022-07-28T02:36:48.000Z,1012.127232
2022-07-28T02:37:11.000Z,1012.127232
2022-07-28T02:37:47.000Z,1012.127232
2022-07-28T02:38:17.000Z,1012.127232
2022-07-28T02:38:47.000Z,1012.0256400000001
2022-07-28T02:39:02.000Z,1012.0256400000001
2022-07-28T02:39:20.000Z,1012.0256400000001
2022-07-28T02:39:45.000Z,1012.2288239999999
2022-07-28T02:40:08.000Z,1012.2288239999999
2022-07-28T02:40:38.000Z,1012.2288239999999
2022-07-28T02:41:03.000Z,1011.9240480000001
2022-07-28T02:41:27.000Z,1011.9240480000001
2022-07-28T02:41:47.000Z,1012.2288239999999
2022-07-28T02:42:16.000Z,1012.2288239999999
2022-07-28T02:42:47.000Z,1012.0256400000001
2022-07-28T02:43:02.000Z,1012.0256400000001
2022-07-28T02:43:20.000Z,1012.0256400000001
2022-07-28T02:43:45.000Z,1012.0256400000001
2022-07-28T02:44:07.000Z,1012.0256400000001
2022-07-28T02:44:27.000Z,1012.0256400000001
2022-07-28T02:44:48.000Z,1012.127232
2022-07-28T02:45:12.000Z,1012.127232
2022-07-28T02:45:47.000Z,1012.127232
2022-07-28T02:46:17.000Z,1012.127232
2022-07-28T02:46:47.000Z,1012.127232
2022-07-28T02:47:02.000Z,1012.127232
2022-07-28T02:47:30.000Z,1012.127232
2022-07-28T02:47:52.000Z,1012.127232
2022-07-28T02:48:27.000Z,1012.127232
2022-07-28T02:48:48.000Z,1012.127232
2022-07-28T02:49:12.000Z,1012.127232
2022-07-28T02:49:46.000Z,1012.127232
2022-07-28T02:50:16.000Z,1012.0256400000001
2022-07-28T02:50:46.000Z,1012.0256400000001
2022-07-28T02:51:20.000Z,1012.0256400000001
2022-07-28T02:51:45.000Z,1012.127232
2022-07-28T02:52:06.000Z,1012.127232
2022-07-28T02:52:41.000Z,1012.127232
2022-07-28T02:53:12.000Z,1012.0256400000001
2022-07-28T02:53:47.000Z,1012.0256400000001
2022-07-28T02:54:26.000Z,1012.127232
2022-07-28T02:54:56.000Z,1012.127232
2022-07-28T02:55:21.000Z,1012.127232
2022-07-28T02:55:46.000Z,1012.127232
2022-07-28T02:56:09.000Z,1012.127232
2022-07-28T02:56:38.000Z,1012.127232
2022-07-28T02:56:54.000Z,1012.0256400000001
2022-07-28T02:57:27.000Z,1012.0256400000001
2022-07-28T02:57:47.000Z,1012.2288239999999
2022-07-28T02:58:17.000Z,1012.2288239999999
2022-07-28T02:58:46.000Z,1012.330416
2022-07-28T02:59:21.000Z,1012.330416
2022-07-28T02:59:45.000Z,1012.330416
2022-07-28T03:00:07.000Z,1012.330416
2022-07-28T03:00:42.000Z,1012.330416
2022-07-28T03:01:12.000Z,1012.330416
2022-07-28T03:01:47.000Z,1012.330416
2022-07-28T03:02:17.000Z,1012.2288239999999
2022-07-28T03:02:47.000Z,1012.0256400000001
2022-07-28T03:03:21.000Z,1012.0256400000001
2022-07-28T03:03:46.000Z,1012.2288239999999
2022-07-28T03:04:09.000Z,1012.2288239999999
2022-07-28T03:04:41.000Z,1012.2288239999999
2022-07-28T03:05:11.000Z,1012.127232
2022-07-28T03:05:47.000Z,1012.127232
2022-07-28T03:06:17.000Z,1012.2288239999999
2022-07-28T03:06:47.000Z,1012.330416
2022-07-28T03:07:20.000Z,1012.330416
2022-07-28T03:07:45.000Z,1012.127232
2022-07-28T03:08:07.000Z,1012.127232
2022-07-28T03:08:41.000Z,1012.127232
2022-07-28T03:09:12.000Z,1012.0256400000001
2022-07-28T03:09:47.000Z,1012.0256400000001
2022-07-28T03:10:17.000Z,1012.2288239999999
2022-07-28T03:10:48.000Z,1012.127232
2022-07-28T03:11:20.000Z,1012.127232
2022-07-28T03:11:45.000Z,1012.0256400000001
2022-07-28T03:12:06.000Z,1012.0256400000001
2022-07-28T03:12:27.000Z,1012.0256400000001
2022-07-28T03:12:48.000Z,1012.127232
2022-07-28T03:13:12.000Z,1012.127232
2022-07-28T03:13:46.000Z,1012.127232
2022-07-28T03:14:16.000Z,1012.0256400000001
2022-07-28T03:14:46.000Z,1011.9240480000001
2022-07-28T03:15:02.000Z,1011.9240480000001
2022-07-28T03:15:20.000Z,1011.9240480000001
2022-07-28T03:15:45.000Z,1011.9240480000001
2022-07-28T03:16:06.000Z,1011.9240480000001
2022-07-28T03:16:27.000Z,1011.9240480000001
2022-07-28T03:16:48.000Z,1012.127232
2022-07-28T03:17:12.000Z,1012.127232
2022-07-28T03:17:47.000Z,1012.127232
2022-07-28T03:18:30.000Z,1012.0256400000001
2022-07-28T03:18:56.000Z,1012.127232
2022-07-28T03:19:21.000Z,1012.127232
2022-07-28T03:19:46.000Z,1012.0256400000001
2022-07-28T03:20:09.000Z,1012.0256400000001
2022-07-28T03:20:38.000Z,1012.0256400000001
2022-07-28T03:21:03.000Z,1011.822456
2022-07-28T03:21:28.000Z,1011.822456
2022-07-28T03:21:56.000Z,1012.0256400000001
2022-07-28T03:22:19.000Z,1012.0256400000001
2022-07-28T03:22:46.000Z,1012.0256400000001
2022-07-28T03:23:11.000Z,1012.0256400000001
2022-07-28T03:23:36.000Z,1012.0256400000001
2022-07-28T03:24:12.000Z,1012.0256400000001
2022-07-28T03:24:38.000Z,1012.0256400000001
2022-07-28T03:25:12.000Z,1012.127232
2022-07-28T03:25:47.000Z,1012.127232
2022-07-28T03:26:17.000Z,1011.9240480000001
2022-07-28T03:26:47.000Z,1012.127232
2022-07-28T03:27:02.000Z,1012.127232
2022-07-28T03:27:36.000Z,1012.127232
2022-07-28T03:28:07.000Z,1011.9240480000001
2022-07-28T03:28:42.000Z,1011.9240480000001
2022-07-28T03:29:11.000Z,1011.9240480000001
2022-07-28T03:29:47.000Z,1011.9240480000001
2022-07-28T03:30:18.000Z,1012.127232
2022-07-28T03:30:45.000Z,1012.0256400000001
2022-07-28T03:31:08.000Z,1012.0256400000001
2022-07-28T03:31:34.000Z,1012.0256400000001
2022-07-28T03:32:01.000Z,1011.9240480000001
2022-07-28T03:32:28.000Z,1011.9240480000001
2022-07-28T03:32:51.000Z,1012.127232
2022-07-28T03:33:11.000Z,1012.127232
2022-07-28T03:33:47.000Z,1012.127232
2022-07-28T03:34:17.000Z,1011.822456
2022-07-28T03:34:46.000Z,1012.0256400000001
2022-07-28T03:35:02.000Z,1012.0256400000001
2022-07-28T03:35:20.000Z,1012.0256400000001
2022-07-28T03:35:45.000Z,1012.127232
2022-07-28T03:36:07.000Z,1012.127232
2022-07-28T03:36:42.000Z,1012.127232
2022-07-28T03:37:11.000Z,1012.127232
2022-07-28T03:37:47.000Z,1012.127232
2022-07-28T03:38:17.000Z,1011.9240480000001
2022-07-28T03:38:47.000Z,1012.127232
2022-07-28T03:39:20.000Z,1012.127232
2022-07-28T03:39:45.000Z,1012.127232
2022-07-28T03:40:11.000Z,1012.127232
2022-07-28T03:40:51.000Z,1011.9240480000001
2022-07-28T03:41:14.000Z,1011.9240480000001
2022-07-28T03:41:42.000Z,1011.9240480000001
2022-07-28T03:42:11.000Z,1012.127232
2022-07-28T03:42:36.000Z,1012.127232
2022-07-28T03:43:07.000Z,1012.127232
2022-07-28T03:43:37.000Z,1012.127232
2022-07-28T03:44:07.000Z,1012.2288239999999
2022-07-28T03:44:27.000Z,1012.2288239999999
2022-07-28T03:44:48.000Z,1012.0256400000001
2022-07-28T03:45:12.000Z,1012.0256400000001
2022-07-28T03:45:47.000Z,1012.0256400000001
2022-07-28T03:46:16.000Z,1012.0256400000001
2022-07-28T03:46:47.000Z,1012.2288239999999
2022-07-28T03:47:02.000Z,1012.2288239999999
2022-07-28T03:47:20.000Z,1012.2288239999999
2022-07-28T03:47:45.000Z,1012.2288239999999
2022-07-28T03:48:07.000Z,1012.2288239999999
2022-07-28T03:48:26.000Z,1012.2288239999999
2022-07-28T03:48:48.000Z,1012.127232
2022-07-28T03:49:12.000Z,1012.127232
2022-07-28T03:49:47.000Z,1012.127232
2022-07-28T03:50:17.000Z,1012.127232
2022-07-28T03:50:47.000Z,1012.127232
2022-07-28T03:51:02.000Z,1012.127232
2022-07-28T03:51:20.000Z,1012.127232
2022-07-28T03:51:45.000Z,1012.330416
2022-07-28T03:52:06.000Z,1012.330416
2022-07-28T03:52:28.000Z,1012.330416
2022-07-28T03:52:49.000Z,1012.127232
2022-07-28T03:53:12.000Z,1012.127232
2022-07-28T03:53:47.000Z,1012.127232
2022-07-28T03:54:17.000Z,1011.9240480000001
2022-07-28T03:54:47.000Z,1012.2288239999999
2022-07-28T03:55:20.000Z,1012.2288239999999
2022-07-28T03:55:45.000Z,1012.0256400000001
2022-07-28T03:56:06.000Z,1012.0256400000001
2022-07-28T03:56:42.000Z,1012.0256400000001
2022-07-28T03:57:12.000Z,1012.330416
2022-07-28T03:57:47.000Z,1012.330416
2022-07-28T03:58:17.000Z,1011.9240480000001
2022-07-28T03:58:46.000Z,1012.127232
2022-07-28T03:59:20.000Z,1012.127232
2022-07-28T03:59:45.000Z,1012.2288239999999
2022-07-28T04:00:07.000Z,1012.2288239999999
2022-07-28T04:00:41.000Z,1012.2288239999999
2022-07-28T04:01:12.000Z,1012.0256400000001
2022-07-28T04:01:47.000Z,1012.0256400000001
2022-07-28T04:02:17.000Z,1012.0256400000001
2022-07-28T04:02:47.000Z,1012.0256400000001
2022-07-28T04:03:20.000Z,1012.0256400000001
2022-07-28T04:03:45.000Z,1012.127232
2022-07-28T04:04:07.000Z,1012.127232
2022-07-28T04:04:42.000Z,1012.127232
2022-07-28T04:05:12.000Z,1012.2288239999999
2022-07-28T04:05:47.000Z,1012.2288239999999
2022-07-28T04:06:17.000Z,1012.2288239999999
2022-07-28T04:06:46.000Z,1012.127232
2022-07-28T04:07:20.000Z,1012.127232
2022-07-28T04:07:45.000Z,1012.2288239999999
2022-07-28T04:08:07.000Z,1012.2288239999999
2022-07-28T04:08:43.000Z,1012.2288239999999
2022-07-28T04:09:10.000Z,1012.2288239999999
2022-07-28T04:09:36.000Z,1012.2288239999999
2022-07-28T04:10:03.000Z,1012.127232
2022-07-28T04:10:30.000Z,1012.127232
2022-07-28T04:10:56.000Z,1011.822456
2022-07-28T04:11:21.000Z,1011.822456
2022-07-28T04:11:46.000Z,1012.127232
2022-07-28T04:12:07.000Z,1012.127232
2022-07-28T04:12:42.000Z,1012.127232
2022-07-28T04:13:11.000Z,1012.127232
2022-07-28T04:13:47.000Z,1012.127232
2022-07-28T04:14:17.000Z,1012.2288239999999
2022-07-28T04:14:46.000Z,1012.2288239999999
2022-07-28T04:15:20.000Z,1012.2288239999999
2022-07-28T04:15:45.000Z,1012.127232
2022-07-28T04:16:07.000Z,1012.127232
2022-07-28T04:16:41.000Z,1012.127232
2022-07-28T04:17:12.000Z,1012.2288239999999
2022-07-28T04:17:47.000Z,1012.2288239999999
2022-07-28T04:18:20.000Z,1012.127232
2022-07-28T04:18:45.000Z,1012.0256400000001
2022-07-28T04:19:02.000Z,1012.0256400000001
2022-07-28T04:19:30.000Z,1012.0256400000001
2022-07-28T04:20:07.000Z,1012.0256400000001
2022-07-28T04:20:41.000Z,1012.0256400000001
2022-07-28T04:21:12.000Z,1012.127232
2022-07-28T04:21:47.000Z,1012.127232
2022-07-28T04:22:16.000Z,1012.330416
2022-07-28T04:22:46.000Z,1012.2288239999999
2022-07-28T04:23:02.000Z,1012.2288239999999
2022-07-28T04:23:36.000Z,1012.2288239999999
2022-07-28T04:24:06.000Z,1012.127232
2022-07-28T04:24:27.000Z,1012.127232
2022-07-28T04:24:48.000Z,1012.2288239999999
2022-07-28T04:25:11.000Z,1012.2288239999999
2022-07-28T04:25:47.000Z,1012.2288239999999
2022-07-28T04:26:16.000Z,1012.330416
2022-07-28T04:26:46.000Z,1012.330416
2022-07-28T04:27:20.000Z,1012.330416
2022-07-28T04:27:45.000Z,1012.2288239999999
2022-07-28T04:28:07.000Z,1012.2288239999999
2022-07-28T04:28:41.000Z,1012.2288239999999
2022-07-28T04:29:12.000Z,1012.127232
2022-07-28T04:29:47.000Z,1012.127232
2022-07-28T04:30:17.000Z,1012.330416
2022-07-28T04:30:46.000Z,1012.330416
2022-07-28T04:31:02.000Z,1012.330416
2022-07-28T04:31:20.000Z,1012.330416
2022-07-28T04:31:45.000Z,1012.127232
2022-07-28T04:32:07.000Z,1012.127232
2022-07-28T04:32:42.000Z,1012.127232
2022-07-28T04:33:11.000Z,1012.127232
2022-07-28T04:33:47.000Z,1012.127232
2022-07-28T04:34:17.000Z,1012.2288239999999
2022-07-28T04:34:46.000Z,1012.127232
2022-07-28T04:35:20.000Z,1012.127232
2022-07-28T04:35:45.000Z,1012.127232
2022-07-28T04:36:07.000Z,1012.127232
2022-07-28T04:36:27.000Z,1012.127232
2022-07-28T04:36:49.000Z,1012.127232